NCAR-RAP Real-Time Weather Data

Output produced by METARs form (08 May 2021  15:51 UTC)
found at http://weather.rap.ucar.edu/surface/
 
KEWR 081451Z 11007KT 6SM -RA SCT020 BKN041 OVC055 12/07 A2985 RMK AO2 RAB26 SLP109 P0001 60001 T01170072 53003
KEWR 081351Z 13005KT 10SM SCT016 BKN050 OVC070 12/07 A2985 RMK AO2 SLP108 T01170072
KEWR 081251Z 12004KT 10SM FEW022 FEW035 OVC070 12/07 A2984 RMK AO2 RAE1155B26E41 SLP104 P0000 T01220072
KEWR 081151Z VRB03KT 10SM -RA FEW020 FEW035 OVC080 12/07 A2984 RMK AO2 RAB40 SLP105 P0000 60000 T01170067 10117 20111 53010
KEWR 081051Z 00000KT 10SM FEW030 OVC100 11/07 A2983 RMK AO2 SLP101 T01110067
KEWR 080951Z 00000KT 10SM FEW025 BKN110 OVC150 11/06 A2982 RMK AO2 SLP097 T01110061
KEWR 080851Z 00000KT 10SM OVC095 11/06 A2981 RMK AO2 RAB12E21 SLP095 P0000 60000 T01110056 56014
KEWR 080751Z 12006KT 10SM FEW030 OVC080 12/05 A2983 RMK AO2 SLP099 T01170050
KEWR 080651Z 13006KT 10SM OVC090 12/05 A2984 RMK AO2 SLP103 T01170050
KEWR 080551Z 12006KT 10SM OVC100 12/05 A2985 RMK AO2 SLP109 T01170050 10139 20117 56012
KEWR 080451Z 12007KT 10SM BKN080 OVC150 12/05 A2987 RMK AO2 SLP113 T01170050 401890089
KEWR 080351Z 14006KT 10SM FEW050 SCT130 BKN250 12/06 A2987 RMK AO2 SLP115 T01220056
KEWR 080251Z 13006KT 10SM FEW040 OVC110 13/04 A2989 RMK AO2 SLP120 T01280044 53012
KEWR 080151Z 14005KT 10SM FEW040 SCT110 OVC170 13/06 A2988 RMK AO2 SLP117 T01330061
KEWR 080051Z 11007KT 10SM FEW060 BKN110 BKN150 OVC250 13/07 A2986 RMK AO2 SLP110 T01330072
KEWR 072351Z 13009KT 10SM FEW060 SCT120 BKN150 OVC250 14/08 A2985 RMK AO2 SLP109 T01390078 10189 20139 51004
KEWR 072315Z 12005KT 10SM FEW060 SCT120 BKN180 OVC250 14/07 A2985 RMK AO2 T01440072
KEWR 072251Z COR VRB06KT 10SM FEW060 BKN120 OVC2350 14/07 A2985 RMK AO2 SLP108 T01440072
KEWR 072151Z 15010KT 10SM FEW060 FEW120 BKN180 OVC250 15/06 A2985 RMK AO2 SLP107 T01500061
KEWR 072051Z 15010G16KT 10SM FEW060 FEW120 BKN180 BKN250 17/01 A2984 RMK AO2 SLP105 T01720006 56012
KEWR 071951Z 11005KT 10SM FEW060 BKN180 BKN250 18/03 A2984 RMK AO2 SLP105 T01830028
KEWR 071851Z 12006KT 10SM FEW060 SCT180 BKN230 BKN260 18/04 A2985 RMK AO2 SLP109 T01830044
KEWR 071751Z 16008KT 10SM FEW060 FEW150 SCT180 BKN250 17/04 A2988 RMK AO2 SLP116 T01670039 10178 20128 56017
KEWR 071651Z 14008KT 10SM SCT060 BKN220 BKN250 17/04 A2988 RMK AO2 SLP119 T01720039
KEWR 071551Z 07005KT 10SM FEW060 FEW130 BKN250 18/01 A2991 RMK AO2 SLP128 T01780011
KEWR 071451Z VRB03KT 10SM FEW130 BKN250 17/02 A2993 RMK AO2 SLP133 T01670017 55001
KEWR 071351Z 06006KT 10SM FEW130 BKN250 16/01 A2993 RMK AO2 SLP133 T01560006
KEWR 071251Z 03006KT 10SM BKN250 14/01 A2993 RMK AO2 SLP134 T01440006
KEWR 071151Z 02011KT 10SM FEW150 BKN250 13/01 A2993 RMK AO2 SLP135 T01280006 10128 20089 55001
KEWR 071051Z 01009KT 10SM FEW150 FEW250 11/M01 A2993 RMK AO2 SLP133 T01111006
KEWR 070951Z 01008KT 10SM FEW150 FEW250 09/M01 A2993 RMK AO2 SLP133 T00941011
KEWR 070851Z 36007KT 10SM SCT130 BKN170 BKN250 10/M02 A2993 RMK AO2 SLP135 T01001022 56005
KEWR 070751Z 02005KT 10SM BKN170 BKN250 10/M01 A2993 RMK AO2 SLP136 T01001011
KEWR 070651Z 02006KT 10SM BKN180 BKN250 10/M02 A2994 RMK AO2 SLP138 T01001017
KEWR 070551Z 01007KT 10SM BKN190 BKN250 12/M02 A2995 RMK AO2 SLP140 T01221022 10178 20111 58004
KEWR 070451Z 01009KT 10SM SCT170 BKN200 BKN250 13/M03 A2995 RMK AO2 SLP142 T01331033 402060100
KEWR 070351Z 34011KT 10SM BKN190 BKN250 14/M02 A2996 RMK AO2 SLP145 T01441022
KEWR 070251Z 34009KT 10SM BKN200 BKN250 16/M02 A2996 RMK AO2 SLP144 T01561017 51016
KEWR 070151Z 33012KT 10SM BKN200 OVC250 16/M02 A2995 RMK AO2 SLP142 T01611022
KEWR 070051Z 33010KT 10SM BKN200 OVC250 17/M02 A2993 RMK AO2 SLP134 T01721022
KEWR 062351Z 32011KT 10SM BKN180 BKN250 18/M03 A2991 RMK AO2 SLP128 T01781028 10206 20178 53010
KEWR 062251Z 33010G16KT 10SM BKN210 BKN260 18/M02 A2989 RMK AO2 SLP122 T01831017
KEWR 062151Z 30008KT 10SM BKN210 OVC260 19/M02 A2989 RMK AO2 SLP121 T01941017
KEWR 062051Z 30011G18KT 10SM FEW060 BKN250 20/M02 A2988 RMK AO2 SLP118 T02001017 58009
KEWR 061951Z VRB06KT 10SM FEW060 BKN250 20/00 A2989 RMK AO2 SLP121 T02000000
KEWR 061856Z 32008G17KT 10SM FEW060 SCT250 20/M01 A2990 RMK AO2 T02001006
KEWR 061851Z 30009G15KT 10SM FEW060 SCT250 19/00 A2990 RMK AO2 SLP125 T01890000
KEWR 061751Z 30017G22KT 10SM FEW055 SCT250 19/00 A2991 RMK AO2 SLP127 T01890000 10194 20128 58018
KEWR 061651Z 31014G20KT 10SM FEW055 SCT250 18/01 A2994 RMK AO2 SLP138 T01830006